sensor_id;sensor_type;location;lat;lon;timestamp;pressure;altitude;pressure_sealevel;temperature;humidity
25080;BME280;13071;48.868;9.996;2023-02-13T00:00:42;98432.69;;;1.63;100.00
25080;BME280;13071;48.868;9.996;2023-02-13T00:03:08;98424.00;;;1.67;100.00
25080;BME280;13071;48.868;9.996;2023-02-13T00:05:35;98423.31;;;1.72;100.00
25080;BME280;13071;48.868;9.996;2023-02-13T00:08:02;98418.22;;;1.70;100.00
25080;BME280;13071;48.868;9.996;2023-02-13T00:10:30;98420.66;;;1.72;100.00
25080;BME280;13071;48.868;9.996;2023-02-13T00:12:56;98415.53;;;1.70;100.00
25080;BME280;13071;48.868;9.996;2023-02-13T00:15:23;98412.53;;;1.67;100.00
25080;BME280;13071;48.868;9.996;2023-02-13T00:17:49;98416.25;;;1.78;100.00
25080;BME280;13071;48.868;9.996;2023-02-13T00:20:16;98414.38;;;1.78;100.00
25080;BME280;13071;48.868;9.996;2023-02-13T00:22:43;98416.13;;;1.72;100.00
25080;BME280;13071;48.868;9.996;2023-02-13T00:25:09;98419.72;;;1.78;100.00
25080;BME280;13071;48.868;9.996;2023-02-13T00:27:37;98429.81;;;1.76;100.00
25080;BME280;13071;48.868;9.996;2023-02-13T00:30:05;98419.50;;;1.80;100.00
25080;BME280;13071;48.868;9.996;2023-02-13T00:32:32;98422.03;;;1.74;100.00
25080;BME280;13071;48.868;9.996;2023-02-13T00:34:58;98421.69;;;1.83;100.00
25080;BME280;13071;48.868;9.996;2023-02-13T00:37:25;98423.09;;;1.85;100.00
25080;BME280;13071;48.868;9.996;2023-02-13T00:39:52;98420.66;;;1.84;100.00
25080;BME280;13071;48.868;9.996;2023-02-13T00:42:18;98417.63;;;1.80;100.00
25080;BME280;13071;48.868;9.996;2023-02-13T00:44:49;98417.97;;;1.84;100.00
25080;BME280;13071;48.868;9.996;2023-02-13T00:47:16;98414.28;;;1.85;100.00
25080;BME280;13071;48.868;9.996;2023-02-13T00:49:42;98418.34;;;1.99;100.00
25080;BME280;13071;48.868;9.996;2023-02-13T00:52:09;98420.56;;;1.90;100.00
25080;BME280;13071;48.868;9.996;2023-02-13T00:54:35;98413.72;;;1.94;100.00
25080;BME280;13071;48.868;9.996;2023-02-13T00:57:02;98415.44;;;1.89;100.00
25080;BME280;13071;48.868;9.996;2023-02-13T00:59:29;98420.22;;;1.98;100.00
25080;BME280;13071;48.868;9.996;2023-02-13T01:01:57;98422.06;;;1.98;100.00
25080;BME280;13071;48.868;9.996;2023-02-13T01:04:23;98415.13;;;1.97;100.00
25080;BME280;13071;48.868;9.996;2023-02-13T01:06:50;98414.03;;;1.98;100.00
25080;BME280;13071;48.868;9.996;2023-02-13T01:09:16;98420.56;;;1.90;100.00
25080;BME280;13071;48.868;9.996;2023-02-13T01:11:43;98412.44;;;1.85;100.00
25080;BME280;13071;48.868;9.996;2023-02-13T01:14:09;98401.75;;;1.85;100.00
25080;BME280;13071;48.868;9.996;2023-02-13T01:16:36;98406.16;;;1.80;100.00
25080;BME280;13071;48.868;9.996;2023-02-13T01:19:04;98407.44;;;1.89;100.00
25080;BME280;13071;48.868;9.996;2023-02-13T01:21:31;98408.81;;;1.80;100.00
25080;BME280;13071;48.868;9.996;2023-02-13T01:24:01;98410.22;;;1.94;100.00
25080;BME280;13071;48.868;9.996;2023-02-13T01:26:27;98402.22;;;1.94;100.00
25080;BME280;13071;48.868;9.996;2023-02-13T01:28:54;98402.91;;;1.89;100.00
25080;BME280;13071;48.868;9.996;2023-02-13T01:31:22;98400.94;;;1.96;100.00
25080;BME280;13071;48.868;9.996;2023-02-13T01:33:49;98406.63;;;2.00;100.00
25080;BME280;13071;48.868;9.996;2023-02-13T01:36:17;98396.97;;;1.99;100.00
25080;BME280;13071;48.868;9.996;2023-02-13T01:38:44;98395.22;;;1.93;100.00
25080;BME280;13071;48.868;9.996;2023-02-13T01:41:10;98389.22;;;1.86;100.00
25080;BME280;13071;48.868;9.996;2023-02-13T01:43:46;98389.88;;;1.93;100.00
25080;BME280;13071;48.868;9.996;2023-02-13T01:46:16;98385.72;;;1.85;100.00
25080;BME280;13071;48.868;9.996;2023-02-13T01:48:43;98393.97;;;1.95;100.00
25080;BME280;13071;48.868;9.996;2023-02-13T01:51:13;98390.50;;;1.95;100.00
25080;BME280;13071;48.868;9.996;2023-02-13T01:53:45;98387.09;;;1.88;100.00
25080;BME280;13071;48.868;9.996;2023-02-13T01:56:20;98387.34;;;1.86;100.00
25080;BME280;13071;48.868;9.996;2023-02-13T01:58:50;98384.44;;;1.88;100.00
25080;BME280;13071;48.868;9.996;2023-02-13T02:01:18;98377.25;;;1.88;100.00
25080;BME280;13071;48.868;9.996;2023-02-13T02:03:48;98379.56;;;1.85;100.00
25080;BME280;13071;48.868;9.996;2023-02-13T02:06:24;98382.13;;;1.91;100.00
25080;BME280;13071;48.868;9.996;2023-02-13T02:08:54;98378.63;;;1.79;100.00
25080;BME280;13071;48.868;9.996;2023-02-13T02:11:29;98379.09;;;1.88;100.00
25080;BME280;13071;48.868;9.996;2023-02-13T02:13:57;98374.69;;;1.82;100.00
25080;BME280;13071;48.868;9.996;2023-02-13T02:16:25;98369.59;;;1.80;100.00
25080;BME280;13071;48.868;9.996;2023-02-13T02:18:52;98369.09;;;1.83;100.00
25080;BME280;13071;48.868;9.996;2023-02-13T02:21:48;98369.25;;;1.77;100.00
25080;BME280;13071;48.868;9.996;2023-02-13T02:24:40;98373.03;;;1.69;100.00
25080;BME280;13071;48.868;9.996;2023-02-13T02:30:30;98362.97;;;1.71;100.00
25080;BME280;13071;48.868;9.996;2023-02-13T02:33:07;98368.41;;;1.64;100.00
25080;BME280;13071;48.868;9.996;2023-02-13T02:35:46;98362.63;;;1.67;100.00
25080;BME280;13071;48.868;9.996;2023-02-13T02:38:26;98365.59;;;1.48;100.00
25080;BME280;13071;48.868;9.996;2023-02-13T02:41:05;98366.19;;;1.08;100.00
25080;BME280;13071;48.868;9.996;2023-02-13T02:43:44;98369.97;;;0.71;100.00
25080;BME280;13071;48.868;9.996;2023-02-13T02:46:21;98368.22;;;0.47;100.00
25080;BME280;13071;48.868;9.996;2023-02-13T02:48:54;98369.31;;;0.57;100.00
25080;BME280;13071;48.868;9.996;2023-02-13T02:51:46;98364.06;;;0.51;100.00
25080;BME280;13071;48.868;9.996;2023-02-13T02:54:18;98365.53;;;0.10;100.00
25080;BME280;13071;48.868;9.996;2023-02-13T02:57:09;98366.22;;;0.24;100.00
25080;BME280;13071;48.868;9.996;2023-02-13T02:59:38;98361.88;;;0.29;100.00
25080;BME280;13071;48.868;9.996;2023-02-13T03:02:24;98362.44;;;0.13;100.00
25080;BME280;13071;48.868;9.996;2023-02-13T03:05:16;98362.00;;;0.16;100.00
25080;BME280;13071;48.868;9.996;2023-02-13T03:08:03;98363.72;;;0.29;100.00
25080;BME280;13071;48.868;9.996;2023-02-13T03:10:32;98366.06;;;0.37;100.00
25080;BME280;13071;48.868;9.996;2023-02-13T03:13:32;98358.88;;;0.56;100.00
25080;BME280;13071;48.868;9.996;2023-02-13T03:16:00;98371.84;;;0.52;100.00
25080;BME280;13071;48.868;9.996;2023-02-13T03:18:46;98372.72;;;0.46;100.00
25080;BME280;13071;48.868;9.996;2023-02-13T03:21:40;98372.06;;;0.51;100.00
25080;BME280;13071;48.868;9.996;2023-02-13T03:24:35;98375.13;;;0.54;100.00
25080;BME280;13071;48.868;9.996;2023-02-13T03:27:08;98376.88;;;0.60;100.00
25080;BME280;13071;48.868;9.996;2023-02-13T03:29:43;98377.25;;;0.64;100.00
25080;BME280;13071;48.868;9.996;2023-02-13T03:32:36;98378.56;;;0.73;100.00
25080;BME280;13071;48.868;9.996;2023-02-13T03:35:19;98387.00;;;0.70;100.00
25080;BME280;13071;48.868;9.996;2023-02-13T03:38:10;98381.91;;;0.68;100.00
25080;BME280;13071;48.868;9.996;2023-02-13T03:40:43;98390.84;;;0.74;100.00
25080;BME280;13071;48.868;9.996;2023-02-13T03:43:29;98384.34;;;0.52;100.00
25080;BME280;13071;48.868;9.996;2023-02-13T03:45:58;98387.31;;;0.62;100.00
25080;BME280;13071;48.868;9.996;2023-02-13T03:48:29;98389.31;;;0.66;100.00
25080;BME280;13071;48.868;9.996;2023-02-13T03:51:18;98393.22;;;0.82;100.00
25080;BME280;13071;48.868;9.996;2023-02-13T03:53:51;98389.50;;;0.83;100.00
25080;BME280;13071;48.868;9.996;2023-02-13T03:56:20;98396.44;;;0.84;100.00
25080;BME280;13071;48.868;9.996;2023-02-13T03:59:07;98397.50;;;0.83;100.00
25080;BME280;13071;48.868;9.996;2023-02-13T04:01:49;98399.38;;;0.94;100.00
25080;BME280;13071;48.868;9.996;2023-02-13T04:04:24;98398.59;;;0.94;100.00
25080;BME280;13071;48.868;9.996;2023-02-13T04:06:56;98405.84;;;0.86;100.00
25080;BME280;13071;48.868;9.996;2023-02-13T04:09:26;98414.88;;;0.85;100.00
25080;BME280;13071;48.868;9.996;2023-02-13T04:11:58;98419.03;;;0.81;100.00
25080;BME280;13071;48.868;9.996;2023-02-13T04:14:33;98418.44;;;0.79;100.00
25080;BME280;13071;48.868;9.996;2023-02-13T04:17:03;98413.72;;;0.81;100.00
25080;BME280;13071;48.868;9.996;2023-02-13T04:19:31;98422.38;;;0.77;100.00
25080;BME280;13071;48.868;9.996;2023-02-13T04:22:00;98417.66;;;0.79;100.00
25080;BME280;13071;48.868;9.996;2023-02-13T04:24:29;98425.66;;;0.79;100.00
25080;BME280;13071;48.868;9.996;2023-02-13T04:26:55;98430.59;;;0.75;100.00
25080;BME280;13071;48.868;9.996;2023-02-13T04:29:24;98426.22;;;0.81;100.00
25080;BME280;13071;48.868;9.996;2023-02-13T04:31:51;98429.91;;;0.80;100.00
25080;BME280;13071;48.868;9.996;2023-02-13T04:34:17;98432.59;;;0.80;100.00
25080;BME280;13071;48.868;9.996;2023-02-13T04:36:44;98427.53;;;0.90;100.00
25080;BME280;13071;48.868;9.996;2023-02-13T04:39:11;98429.25;;;0.84;100.00
25080;BME280;13071;48.868;9.996;2023-02-13T04:41:39;98431.88;;;0.73;100.00
25080;BME280;13071;48.868;9.996;2023-02-13T04:44:06;98428.97;;;0.74;100.00
25080;BME280;13071;48.868;9.996;2023-02-13T04:46:32;98427.94;;;0.75;100.00
25080;BME280;13071;48.868;9.996;2023-02-13T04:48:59;98429.28;;;0.66;100.00
25080;BME280;13071;48.868;9.996;2023-02-13T04:51:26;98429.13;;;0.61;100.00
25080;BME280;13071;48.868;9.996;2023-02-13T04:53:52;98432.91;;;0.54;100.00
25080;BME280;13071;48.868;9.996;2023-02-13T04:56:19;98432.31;;;0.52;100.00
25080;BME280;13071;48.868;9.996;2023-02-13T04:58:47;98428.88;;;0.44;100.00
25080;BME280;13071;48.868;9.996;2023-02-13T05:01:15;98425.44;;;0.44;100.00
25080;BME280;13071;48.868;9.996;2023-02-13T05:03:42;98421.34;;;0.41;100.00
25080;BME280;13071;48.868;9.996;2023-02-13T05:06:08;98434.72;;;0.35;100.00
25080;BME280;13071;48.868;9.996;2023-02-13T05:08:35;98429.47;;;0.28;100.00
25080;BME280;13071;48.868;9.996;2023-02-13T05:11:02;98435.84;;;0.27;100.00
25080;BME280;13071;48.868;9.996;2023-02-13T05:13:28;98436.28;;;0.24;100.00
25080;BME280;13071;48.868;9.996;2023-02-13T05:15:56;98438.13;;;0.24;100.00
25080;BME280;13071;48.868;9.996;2023-02-13T05:18:23;98427.31;;;0.19;100.00
25080;BME280;13071;48.868;9.996;2023-02-13T05:20:50;98440.41;;;0.20;100.00
25080;BME280;13071;48.868;9.996;2023-02-13T05:23:30;98448.84;;;0.17;100.00
25080;BME280;13071;48.868;9.996;2023-02-13T05:25:57;98438.84;;;0.13;100.00
25080;BME280;13071;48.868;9.996;2023-02-13T05:28:24;98448.03;;;0.17;100.00
25080;BME280;13071;48.868;9.996;2023-02-13T05:31:09;98435.97;;;0.14;100.00
25080;BME280;13071;48.868;9.996;2023-02-13T05:33:36;98441.50;;;0.13;100.00
25080;BME280;13071;48.868;9.996;2023-02-13T05:36:03;98435.81;;;0.09;100.00
25080;BME280;13071;48.868;9.996;2023-02-13T05:38:30;98440.47;;;0.14;100.00
25080;BME280;13071;48.868;9.996;2023-02-13T05:40:57;98438.25;;;0.11;100.00
25080;BME280;13071;48.868;9.996;2023-02-13T05:43:24;98443.41;;;0.06;100.00
25080;BME280;13071;48.868;9.996;2023-02-13T05:45:51;98436.63;;;0.10;100.00
25080;BME280;13071;48.868;9.996;2023-02-13T05:48:19;98433.81;;;0.05;100.00
25080;BME280;13071;48.868;9.996;2023-02-13T05:50:45;98432.59;;;0.00;100.00
25080;BME280;13071;48.868;9.996;2023-02-13T05:53:12;98431.16;;;0.05;100.00
25080;BME280;13071;48.868;9.996;2023-02-13T05:55:38;98431.34;;;0.03;100.00
25080;BME280;13071;48.868;9.996;2023-02-13T05:58:05;98437.72;;;0.02;100.00
25080;BME280;13071;48.868;9.996;2023-02-13T06:00:33;98432.56;;;0.07;100.00
25080;BME280;13071;48.868;9.996;2023-02-13T06:03:00;98429.28;;;0.05;100.00
25080;BME280;13071;48.868;9.996;2023-02-13T06:05:28;98432.06;;;-0.08;100.00
25080;BME280;13071;48.868;9.996;2023-02-13T06:07:54;98433.66;;;-0.01;100.00
25080;BME280;13071;48.868;9.996;2023-02-13T06:10:21;98434.31;;;-0.05;100.00
25080;BME280;13071;48.868;9.996;2023-02-13T06:12:47;98441.03;;;-0.03;100.00
25080;BME280;13071;48.868;9.996;2023-02-13T06:15:14;98436.72;;;-0.04;100.00
25080;BME280;13071;48.868;9.996;2023-02-13T06:17:40;98444.97;;;-0.05;100.00
25080;BME280;13071;48.868;9.996;2023-02-13T06:20:08;98441.25;;;-0.04;100.00
25080;BME280;13071;48.868;9.996;2023-02-13T06:22:36;98441.72;;;-0.14;100.00
25080;BME280;13071;48.868;9.996;2023-02-13T06:25:03;98449.06;;;-0.09;100.00
25080;BME280;13071;48.868;9.996;2023-02-13T06:27:30;98450.03;;;-0.04;100.00
25080;BME280;13071;48.868;9.996;2023-02-13T06:29:56;98446.97;;;-0.01;100.00
25080;BME280;13071;48.868;9.996;2023-02-13T06:32:23;98449.22;;;-0.04;100.00
25080;BME280;13071;48.868;9.996;2023-02-13T06:34:50;98453.09;;;0.00;100.00
25080;BME280;13071;48.868;9.996;2023-02-13T06:37:16;98452.13;;;-0.06;100.00
25080;BME280;13071;48.868;9.996;2023-02-13T06:39:44;98461.13;;;-0.07;100.00
25080;BME280;13071;48.868;9.996;2023-02-13T06:42:10;98464.22;;;-0.10;100.00
25080;BME280;13071;48.868;9.996;2023-02-13T06:44:37;98457.50;;;-0.12;100.00
25080;BME280;13071;48.868;9.996;2023-02-13T06:47:04;98466.66;;;-0.08;100.00
25080;BME280;13071;48.868;9.996;2023-02-13T06:49:30;98464.38;;;-0.05;100.00
25080;BME280;13071;48.868;9.996;2023-02-13T06:51:57;98469.81;;;0.07;100.00
25080;BME280;13071;48.868;9.996;2023-02-13T06:54:23;98472.34;;;0.20;100.00
25080;BME280;13071;48.868;9.996;2023-02-13T06:56:51;98477.09;;;0.18;100.00
25080;BME280;13071;48.868;9.996;2023-02-13T06:59:18;98479.97;;;0.17;100.00
25080;BME280;13071;48.868;9.996;2023-02-13T07:01:44;98483.00;;;0.20;100.00
25080;BME280;13071;48.868;9.996;2023-02-13T07:04:12;98487.00;;;0.11;100.00
25080;BME280;13071;48.868;9.996;2023-02-13T07:06:39;98490.06;;;0.15;100.00
25080;BME280;13071;48.868;9.996;2023-02-13T07:09:05;98481.78;;;0.23;100.00
25080;BME280;13071;48.868;9.996;2023-02-13T07:11:32;98485.19;;;0.30;100.00
25080;BME280;13071;48.868;9.996;2023-02-13T07:14:00;98483.50;;;0.35;100.00
25080;BME280;13071;48.868;9.996;2023-02-13T07:16:26;98479.47;;;0.26;100.00
25080;BME280;13071;48.868;9.996;2023-02-13T07:18:53;98474.47;;;0.36;100.00
25080;BME280;13071;48.868;9.996;2023-02-13T07:21:19;98478.56;;;0.39;100.00
25080;BME280;13071;48.868;9.996;2023-02-13T07:23:46;98483.81;;;0.46;100.00
25080;BME280;13071;48.868;9.996;2023-02-13T07:26:12;98477.00;;;0.50;100.00
25080;BME280;13071;48.868;9.996;2023-02-13T07:28:40;98475.16;;;0.50;100.00
25080;BME280;13071;48.868;9.996;2023-02-13T07:31:08;98482.78;;;0.65;100.00
25080;BME280;13071;48.868;9.996;2023-02-13T07:33:36;98481.47;;;0.74;100.00
25080;BME280;13071;48.868;9.996;2023-02-13T07:36:03;98485.53;;;0.76;100.00
25080;BME280;13071;48.868;9.996;2023-02-13T07:38:31;98481.63;;;0.79;100.00
25080;BME280;13071;48.868;9.996;2023-02-13T07:40:58;98484.66;;;0.82;100.00
25080;BME280;13071;48.868;9.996;2023-02-13T07:43:24;98486.44;;;0.89;100.00
25080;BME280;13071;48.868;9.996;2023-02-13T07:45:51;98490.34;;;0.86;100.00
25080;BME280;13071;48.868;9.996;2023-02-13T07:48:21;98483.78;;;0.89;100.00
25080;BME280;13071;48.868;9.996;2023-02-13T07:50:47;98484.63;;;1.01;100.00
25080;BME280;13071;48.868;9.996;2023-02-13T07:53:14;98491.41;;;1.03;100.00
25080;BME280;13071;48.868;9.996;2023-02-13T07:55:40;98487.06;;;1.20;100.00
25080;BME280;13071;48.868;9.996;2023-02-13T07:58:07;98488.91;;;1.20;100.00
25080;BME280;13071;48.868;9.996;2023-02-13T08:00:33;98482.09;;;1.24;100.00
25080;BME280;13071;48.868;9.996;2023-02-13T08:03:00;98486.53;;;1.30;100.00
25080;BME280;13071;48.868;9.996;2023-02-13T08:05:30;98480.16;;;1.31;100.00
25080;BME280;13071;48.868;9.996;2023-02-13T08:07:57;98483.44;;;1.33;100.00
25080;BME280;13071;48.868;9.996;2023-02-13T08:10:24;98487.25;;;1.37;100.00
25080;BME280;13071;48.868;9.996;2023-02-13T08:13:08;98488.34;;;1.48;100.00
25080;BME280;13071;48.868;9.996;2023-02-13T08:15:37;98484.31;;;1.57;100.00
25080;BME280;13071;48.868;9.996;2023-02-13T08:18:03;98493.59;;;1.54;100.00
25080;BME280;13071;48.868;9.996;2023-02-13T08:20:31;98484.75;;;1.54;100.00
25080;BME280;13071;48.868;9.996;2023-02-13T08:23:01;98483.63;;;1.61;100.00
25080;BME280;13071;48.868;9.996;2023-02-13T08:25:29;98472.38;;;1.59;100.00
25080;BME280;13071;48.868;9.996;2023-02-13T08:27:57;98482.00;;;1.60;100.00
25080;BME280;13071;48.868;9.996;2023-02-13T08:30:24;98479.13;;;1.62;100.00
25080;BME280;13071;48.868;9.996;2023-02-13T08:32:50;98467.19;;;1.76;100.00
25080;BME280;13071;48.868;9.996;2023-02-13T08:35:17;98471.63;;;1.82;100.00
25080;BME280;13071;48.868;9.996;2023-02-13T08:37:45;98470.47;;;1.90;99.44
25080;BME280;13071;48.868;9.996;2023-02-13T08:40:12;98468.50;;;1.85;99.69
25080;BME280;13071;48.868;9.996;2023-02-13T08:42:39;98466.91;;;1.96;99.35
25080;BME280;13071;48.868;9.996;2023-02-13T08:45:05;98471.44;;;2.07;99.03
25080;BME280;13071;48.868;9.996;2023-02-13T08:47:34;98468.41;;;2.03;99.21
25080;BME280;13071;48.868;9.996;2023-02-13T08:50:01;98466.88;;;2.07;98.35
25080;BME280;13071;48.868;9.996;2023-02-13T08:52:27;98468.88;;;2.24;98.73
25080;BME280;13071;48.868;9.996;2023-02-13T08:54:55;98470.84;;;2.28;98.21
25080;BME280;13071;48.868;9.996;2023-02-13T08:57:22;98474.69;;;2.32;98.40
25080;BME280;13071;48.868;9.996;2023-02-13T08:59:48;98475.19;;;2.41;98.28
25080;BME280;13071;48.868;9.996;2023-02-13T09:02:15;98471.09;;;2.50;97.12
25080;BME280;13071;48.868;9.996;2023-02-13T09:04:41;98471.81;;;2.45;96.70
25080;BME280;13071;48.868;9.996;2023-02-13T09:07:08;98476.78;;;2.42;97.75
25080;BME280;13071;48.868;9.996;2023-02-13T09:09:34;98480.06;;;2.44;97.91
25080;BME280;13071;48.868;9.996;2023-02-13T09:12:03;98484.13;;;2.46;97.10
25080;BME280;13071;48.868;9.996;2023-02-13T09:14:29;98486.78;;;2.58;97.14
25080;BME280;13071;48.868;9.996;2023-02-13T09:16:56;98476.19;;;2.75;97.03
25080;BME280;13071;48.868;9.996;2023-02-13T09:19:22;98482.91;;;2.89;95.81
25080;BME280;13071;48.868;9.996;2023-02-13T09:21:49;98478.28;;;2.84;95.29
25080;BME280;13071;48.868;9.996;2023-02-13T09:24:16;98484.53;;;2.90;94.97
25080;BME280;13071;48.868;9.996;2023-02-13T09:26:42;98478.44;;;3.06;94.21
25080;BME280;13071;48.868;9.996;2023-02-13T09:29:10;98478.69;;;3.04;93.61
25080;BME280;13071;48.868;9.996;2023-02-13T09:31:36;98479.13;;;3.13;94.58
25080;BME280;13071;48.868;9.996;2023-02-13T09:34:03;98479.94;;;3.14;94.02
25080;BME280;13071;48.868;9.996;2023-02-13T09:36:30;98472.59;;;3.21;94.03
25080;BME280;13071;48.868;9.996;2023-02-13T09:38:57;98472.25;;;3.17;93.94
25080;BME280;13071;48.868;9.996;2023-02-13T09:41:27;98479.44;;;3.28;93.82
25080;BME280;13071;48.868;9.996;2023-02-13T09:43:56;98478.00;;;3.37;92.34
25080;BME280;13071;48.868;9.996;2023-02-13T09:46:29;98479.06;;;3.36;93.12
25080;BME280;13071;48.868;9.996;2023-02-13T09:49:00;98476.94;;;3.50;93.34
25080;BME280;13071;48.868;9.996;2023-02-13T09:51:28;98473.75;;;3.53;93.06
25080;BME280;13071;48.868;9.996;2023-02-13T09:53:56;98474.56;;;3.54;93.29
25080;BME280;13071;48.868;9.996;2023-02-13T09:56:36;98480.66;;;3.49;94.14
25080;BME280;13071;48.868;9.996;2023-02-13T09:59:13;98483.66;;;3.53;93.32
25080;BME280;13071;48.868;9.996;2023-02-13T10:01:45;98478.09;;;3.71;92.10
25080;BME280;13071;48.868;9.996;2023-02-13T10:04:24;98475.47;;;3.59;93.19
25080;BME280;13071;48.868;9.996;2023-02-13T10:07:00;98483.22;;;3.72;93.16
25080;BME280;13071;48.868;9.996;2023-02-13T10:09:35;98478.44;;;3.74;92.78
25080;BME280;13071;48.868;9.996;2023-02-13T10:12:18;98482.34;;;3.83;92.02
25080;BME280;13071;48.868;9.996;2023-02-13T10:14:55;98490.56;;;3.94;92.12
25080;BME280;13071;48.868;9.996;2023-02-13T10:17:32;98484.94;;;3.95;92.35
25080;BME280;13071;48.868;9.996;2023-02-13T10:20:04;98486.47;;;3.91;90.99
25080;BME280;13071;48.868;9.996;2023-02-13T10:22:34;98491.47;;;3.99;91.64
25080;BME280;13071;48.868;9.996;2023-02-13T10:25:05;98485.09;;;4.05;91.63
25080;BME280;13071;48.868;9.996;2023-02-13T10:27:36;98484.94;;;3.95;91.47
25080;BME280;13071;48.868;9.996;2023-02-13T10:30:07;98481.28;;;4.01;91.47
25080;BME280;13071;48.868;9.996;2023-02-13T10:32:46;98490.03;;;3.80;91.47
25080;BME280;13071;48.868;9.996;2023-02-13T10:35:19;98493.97;;;4.06;91.35
25080;BME280;13071;48.868;9.996;2023-02-13T10:37:50;98490.09;;;4.13;91.63
25080;BME280;13071;48.868;9.996;2023-02-13T10:40:18;98491.16;;;4.29;90.39
25080;BME280;13071;48.868;9.996;2023-02-13T10:42:46;98489.25;;;4.29;91.23
25080;BME280;13071;48.868;9.996;2023-02-13T10:45:29;98483.16;;;4.51;90.89
25080;BME280;13071;48.868;9.996;2023-02-13T10:48:08;98480.84;;;4.59;90.34
25080;BME280;13071;48.868;9.996;2023-02-13T10:50:44;98470.63;;;4.56;91.08
25080;BME280;13071;48.868;9.996;2023-02-13T10:53:18;98472.16;;;4.69;90.62
25080;BME280;13071;48.868;9.996;2023-02-13T10:56:00;98463.88;;;4.70;89.23
25080;BME280;13071;48.868;9.996;2023-02-13T10:58:46;98459.00;;;4.67;90.28
25080;BME280;13071;48.868;9.996;2023-02-13T11:01:19;98459.06;;;4.72;89.60
25080;BME280;13071;48.868;9.996;2023-02-13T11:04:00;98457.44;;;4.71;88.71
25080;BME280;13071;48.868;9.996;2023-02-13T11:06:29;98455.38;;;4.78;88.34
25080;BME280;13071;48.868;9.996;2023-02-13T11:08:55;98451.91;;;4.78;88.90
25080;BME280;13071;48.868;9.996;2023-02-13T11:11:30;98446.56;;;4.61;89.38
25080;BME280;13071;48.868;9.996;2023-02-13T11:14:15;98452.16;;;4.76;88.48
25080;BME280;13071;48.868;9.996;2023-02-13T11:16:49;98442.47;;;4.75;87.93
25080;BME280;13071;48.868;9.996;2023-02-13T11:19:21;98442.41;;;4.32;90.00
25080;BME280;13071;48.868;9.996;2023-02-13T11:21:56;98445.63;;;4.51;89.84
25080;BME280;13071;48.868;9.996;2023-02-13T11:24:25;98440.47;;;4.66;89.50
25080;BME280;13071;48.868;9.996;2023-02-13T11:26:56;98447.09;;;4.42;90.84
25080;BME280;13071;48.868;9.996;2023-02-13T11:29:26;98439.97;;;4.69;89.35
25080;BME280;13071;48.868;9.996;2023-02-13T11:32:17;98438.06;;;4.86;89.23
25080;BME280;13071;48.868;9.996;2023-02-13T11:34:45;98441.69;;;4.97;88.94
25080;BME280;13071;48.868;9.996;2023-02-13T11:37:24;98447.53;;;5.15;87.40
25080;BME280;13071;48.868;9.996;2023-02-13T11:39:53;98444.66;;;5.00;87.21
25080;BME280;13071;48.868;9.996;2023-02-13T11:42:25;98448.09;;;5.17;86.65
25080;BME280;13071;48.868;9.996;2023-02-13T11:44:56;98439.53;;;4.99;87.47
25080;BME280;13071;48.868;9.996;2023-02-13T11:47:36;98437.16;;;5.24;86.02
25080;BME280;13071;48.868;9.996;2023-02-13T11:50:19;98424.50;;;5.19;85.74
25080;BME280;13071;48.868;9.996;2023-02-13T11:52:54;98426.63;;;5.17;85.66
25080;BME280;13071;48.868;9.996;2023-02-13T11:55:28;98438.78;;;5.03;86.65
25080;BME280;13071;48.868;9.996;2023-02-13T11:57:58;98432.31;;;5.21;86.71
25080;BME280;13071;48.868;9.996;2023-02-13T12:00:28;98432.91;;;5.28;84.68
25080;BME280;13071;48.868;9.996;2023-02-13T12:02:56;98429.97;;;5.30;85.26
25080;BME280;13071;48.868;9.996;2023-02-13T12:05:26;98431.25;;;5.49;85.39
25080;BME280;13071;48.868;9.996;2023-02-13T12:07:57;98431.56;;;5.52;83.91
25080;BME280;13071;48.868;9.996;2023-02-13T12:10:27;98423.75;;;5.24;85.96
25080;BME280;13071;48.868;9.996;2023-02-13T12:12:55;98423.84;;;5.34;85.25
25080;BME280;13071;48.868;9.996;2023-02-13T12:15:26;98425.59;;;5.45;85.13
25080;BME280;13071;48.868;9.996;2023-02-13T12:18:02;98421.03;;;5.46;84.44
25080;BME280;13071;48.868;9.996;2023-02-13T12:20:36;98427.88;;;5.10;85.77
25080;BME280;13071;48.868;9.996;2023-02-13T12:23:15;98418.13;;;5.04;85.69
25080;BME280;13071;48.868;9.996;2023-02-13T12:25:56;98419.34;;;4.91;86.49
25080;BME280;13071;48.868;9.996;2023-02-13T12:28:37;98425.13;;;5.05;86.61
25080;BME280;13071;48.868;9.996;2023-02-13T12:31:41;98421.94;;;4.86;86.34
25080;BME280;13071;48.868;9.996;2023-02-13T12:34:48;98420.56;;;5.05;86.70
25080;BME280;13071;48.868;9.996;2023-02-13T12:37:31;98421.25;;;4.74;86.97
25080;BME280;13071;48.868;9.996;2023-02-13T12:40:14;98419.72;;;4.78;87.58
25080;BME280;13071;48.868;9.996;2023-02-13T12:42:54;98412.97;;;4.75;87.68
25080;BME280;13071;48.868;9.996;2023-02-13T12:45:32;98412.09;;;4.92;88.09
25080;BME280;13071;48.868;9.996;2023-02-13T12:48:23;98419.81;;;5.10;86.55
25080;BME280;13071;48.868;9.996;2023-02-13T12:51:16;98421.75;;;5.14;85.95
25080;BME280;13071;48.868;9.996;2023-02-13T12:56:47;98420.81;;;5.04;86.64
25080;BME280;13071;48.868;9.996;2023-02-13T12:59:24;98423.13;;;4.95;87.07
25080;BME280;13071;48.868;9.996;2023-02-13T13:02:15;98424.75;;;5.18;85.57
25080;BME280;13071;48.868;9.996;2023-02-13T13:04:51;98425.88;;;5.00;85.92
25080;BME280;13071;48.868;9.996;2023-02-13T13:07:50;98427.00;;;5.04;86.39
25080;BME280;13071;48.868;9.996;2023-02-13T13:10:35;98422.75;;;5.08;86.84
25080;BME280;13071;48.868;9.996;2023-02-13T13:13:16;98415.03;;;5.12;87.11
25080;BME280;13071;48.868;9.996;2023-02-13T13:15:51;98415.66;;;4.97;88.04
25080;BME280;13071;48.868;9.996;2023-02-13T13:18:30;98415.38;;;4.99;87.90
25080;BME280;13071;48.868;9.996;2023-02-13T13:21:07;98410.78;;;4.72;88.37
25080;BME280;13071;48.868;9.996;2023-02-13T13:23:43;98415.72;;;4.81;87.65
25080;BME280;13071;48.868;9.996;2023-02-13T13:26:19;98410.41;;;5.07;87.27
25080;BME280;13071;48.868;9.996;2023-02-13T13:28:51;98420.63;;;4.89;88.72
25080;BME280;13071;48.868;9.996;2023-02-13T13:31:20;98417.59;;;4.80;88.32